sensor_id;sensor_type;location;lat;lon;timestamp;P1;durP1;ratioP1;P2;durP2;ratioP2
22103;SDS011;11218;48.886;9.426;2023-02-03T00:00:06;12.77;;;2.60;;
22103;SDS011;11218;48.886;9.426;2023-02-03T00:02:35;13.10;;;3.08;;
22103;SDS011;11218;48.886;9.426;2023-02-03T00:05:05;16.48;;;3.10;;
22103;SDS011;11218;48.886;9.426;2023-02-03T00:07:35;13.68;;;3.00;;
22103;SDS011;11218;48.886;9.426;2023-02-03T00:10:04;12.30;;;2.83;;
22103;SDS011;11218;48.886;9.426;2023-02-03T00:12:33;12.30;;;2.55;;
22103;SDS011;11218;48.886;9.426;2023-02-03T00:15:02;14.77;;;2.85;;
22103;SDS011;11218;48.886;9.426;2023-02-03T00:17:31;14.20;;;3.00;;
22103;SDS011;11218;48.886;9.426;2023-02-03T00:19:59;16.55;;;3.20;;
22103;SDS011;11218;48.886;9.426;2023-02-03T00:22:28;14.90;;;3.05;;
22103;SDS011;11218;48.886;9.426;2023-02-03T00:24:57;14.32;;;2.97;;
22103;SDS011;11218;48.886;9.426;2023-02-03T00:27:26;14.73;;;2.95;;
22103;SDS011;11218;48.886;9.426;2023-02-03T00:29:54;15.48;;;2.95;;
22103;SDS011;11218;48.886;9.426;2023-02-03T00:32:22;15.23;;;2.85;;
22103;SDS011;11218;48.886;9.426;2023-02-03T00:34:50;16.48;;;3.05;;
22103;SDS011;11218;48.886;9.426;2023-02-03T00:37:18;16.80;;;3.17;;
22103;SDS011;11218;48.886;9.426;2023-02-03T00:39:50;15.70;;;2.90;;
22103;SDS011;11218;48.886;9.426;2023-02-03T00:42:18;14.30;;;3.10;;
22103;SDS011;11218;48.886;9.426;2023-02-03T00:44:46;9.02;;;2.10;;
22103;SDS011;11218;48.886;9.426;2023-02-03T00:47:14;14.35;;;2.78;;
22103;SDS011;11218;48.886;9.426;2023-02-03T00:49:42;17.65;;;3.33;;
22103;SDS011;11218;48.886;9.426;2023-02-03T00:52:11;16.65;;;3.13;;
22103;SDS011;11218;48.886;9.426;2023-02-03T00:54:39;17.63;;;3.38;;
22103;SDS011;11218;48.886;9.426;2023-02-03T00:57:09;19.50;;;3.55;;
22103;SDS011;11218;48.886;9.426;2023-02-03T00:59:37;16.65;;;2.88;;
22103;SDS011;11218;48.886;9.426;2023-02-03T01:02:06;20.13;;;3.63;;
22103;SDS011;11218;48.886;9.426;2023-02-03T01:04:34;12.40;;;2.60;;
22103;SDS011;11218;48.886;9.426;2023-02-03T01:07:02;15.68;;;3.28;;
22103;SDS011;11218;48.886;9.426;2023-02-03T01:09:32;16.10;;;3.25;;
22103;SDS011;11218;48.886;9.426;2023-02-03T01:12:00;19.10;;;3.80;;
22103;SDS011;11218;48.886;9.426;2023-02-03T01:14:30;18.48;;;3.78;;
22103;SDS011;11218;48.886;9.426;2023-02-03T01:16:59;12.73;;;2.70;;
22103;SDS011;11218;48.886;9.426;2023-02-03T01:19:27;15.90;;;3.28;;
22103;SDS011;11218;48.886;9.426;2023-02-03T01:21:55;15.80;;;3.10;;
22103;SDS011;11218;48.886;9.426;2023-02-03T01:24:23;15.45;;;2.75;;
22103;SDS011;11218;48.886;9.426;2023-02-03T01:26:51;11.75;;;2.63;;
22103;SDS011;11218;48.886;9.426;2023-02-03T01:29:19;16.63;;;3.15;;
22103;SDS011;11218;48.886;9.426;2023-02-03T01:31:49;22.33;;;3.78;;
22103;SDS011;11218;48.886;9.426;2023-02-03T01:34:17;13.68;;;2.80;;
22103;SDS011;11218;48.886;9.426;2023-02-03T01:36:46;14.13;;;2.90;;
22103;SDS011;11218;48.886;9.426;2023-02-03T01:39:14;13.00;;;2.60;;
22103;SDS011;11218;48.886;9.426;2023-02-03T01:41:42;14.48;;;3.00;;
22103;SDS011;11218;48.886;9.426;2023-02-03T01:47:11;14.48;;;2.95;;
22103;SDS011;11218;48.886;9.426;2023-02-03T01:49:44;21.52;;;3.88;;
22103;SDS011;11218;48.886;9.426;2023-02-03T01:52:16;13.25;;;2.92;;
22103;SDS011;11218;48.886;9.426;2023-02-03T01:54:45;12.05;;;2.58;;
22103;SDS011;11218;48.886;9.426;2023-02-03T01:57:18;9.45;;;2.45;;
22103;SDS011;11218;48.886;9.426;2023-02-03T01:59:50;15.07;;;3.05;;
22103;SDS011;11218;48.886;9.426;2023-02-03T02:02:21;18.33;;;3.28;;
22103;SDS011;11218;48.886;9.426;2023-02-03T02:04:52;8.48;;;2.15;;
22103;SDS011;11218;48.886;9.426;2023-02-03T02:07:23;12.30;;;2.78;;
22103;SDS011;11218;48.886;9.426;2023-02-03T02:09:52;13.00;;;2.97;;
22103;SDS011;11218;48.886;9.426;2023-02-03T02:12:22;10.55;;;2.58;;
22103;SDS011;11218;48.886;9.426;2023-02-03T02:14:49;14.18;;;2.63;;
22103;SDS011;11218;48.886;9.426;2023-02-03T02:17:32;13.57;;;2.85;;
22103;SDS011;11218;48.886;9.426;2023-02-03T02:23:35;17.95;;;3.10;;
22103;SDS011;11218;48.886;9.426;2023-02-03T02:29:30;13.32;;;2.85;;
22103;SDS011;11218;48.886;9.426;2023-02-03T02:32:25;15.40;;;3.15;;
22103;SDS011;11218;48.886;9.426;2023-02-03T02:35:03;15.45;;;2.90;;
22103;SDS011;11218;48.886;9.426;2023-02-03T02:37:43;19.25;;;3.70;;
22103;SDS011;11218;48.886;9.426;2023-02-03T02:40:20;15.70;;;3.20;;
22103;SDS011;11218;48.886;9.426;2023-02-03T02:43:03;12.73;;;2.80;;
22103;SDS011;11218;48.886;9.426;2023-02-03T02:45:38;10.48;;;2.60;;
22103;SDS011;11218;48.886;9.426;2023-02-03T02:48:18;18.02;;;3.40;;
22103;SDS011;11218;48.886;9.426;2023-02-03T02:50:51;14.45;;;2.83;;
22103;SDS011;11218;48.886;9.426;2023-02-03T02:53:23;8.93;;;2.17;;
22103;SDS011;11218;48.886;9.426;2023-02-03T02:55:53;13.15;;;2.83;;
22103;SDS011;11218;48.886;9.426;2023-02-03T02:58:24;17.92;;;3.10;;
22103;SDS011;11218;48.886;9.426;2023-02-03T03:00:56;17.17;;;3.47;;
22103;SDS011;11218;48.886;9.426;2023-02-03T03:03:26;10.77;;;2.30;;
22103;SDS011;11218;48.886;9.426;2023-02-03T03:05:55;11.27;;;2.65;;
22103;SDS011;11218;48.886;9.426;2023-02-03T03:08:27;13.40;;;2.72;;
22103;SDS011;11218;48.886;9.426;2023-02-03T03:11:00;20.23;;;3.88;;
22103;SDS011;11218;48.886;9.426;2023-02-03T03:13:31;14.95;;;3.03;;
22103;SDS011;11218;48.886;9.426;2023-02-03T03:16:04;11.25;;;2.78;;
22103;SDS011;11218;48.886;9.426;2023-02-03T03:18:36;13.05;;;3.05;;
22103;SDS011;11218;48.886;9.426;2023-02-03T03:21:10;14.57;;;2.85;;
22103;SDS011;11218;48.886;9.426;2023-02-03T03:23:43;15.98;;;3.08;;
22103;SDS011;11218;48.886;9.426;2023-02-03T03:26:17;9.00;;;2.20;;
22103;SDS011;11218;48.886;9.426;2023-02-03T03:28:51;19.42;;;3.60;;
22103;SDS011;11218;48.886;9.426;2023-02-03T03:31:29;13.02;;;3.08;;
22103;SDS011;11218;48.886;9.426;2023-02-03T03:33:59;16.10;;;3.22;;
22103;SDS011;11218;48.886;9.426;2023-02-03T03:36:28;7.85;;;2.35;;
22103;SDS011;11218;48.886;9.426;2023-02-03T03:39:01;13.05;;;2.90;;
22103;SDS011;11218;48.886;9.426;2023-02-03T03:41:35;17.73;;;3.25;;
22103;SDS011;11218;48.886;9.426;2023-02-03T03:44:09;17.67;;;3.58;;
22103;SDS011;11218;48.886;9.426;2023-02-03T03:46:42;19.60;;;3.85;;
22103;SDS011;11218;48.886;9.426;2023-02-03T03:49:17;14.93;;;2.80;;
22103;SDS011;11218;48.886;9.426;2023-02-03T03:51:47;12.57;;;2.63;;
22103;SDS011;11218;48.886;9.426;2023-02-03T03:54:19;13.30;;;3.05;;
22103;SDS011;11218;48.886;9.426;2023-02-03T03:56:50;21.27;;;3.80;;
22103;SDS011;11218;48.886;9.426;2023-02-03T03:59:24;16.80;;;3.40;;
22103;SDS011;11218;48.886;9.426;2023-02-03T04:01:55;13.63;;;3.08;;
22103;SDS011;11218;48.886;9.426;2023-02-03T04:04:33;13.70;;;2.95;;
22103;SDS011;11218;48.886;9.426;2023-02-03T04:07:02;30.25;;;10.38;;
22103;SDS011;11218;48.886;9.426;2023-02-03T04:09:31;24.23;;;4.93;;
22103;SDS011;11218;48.886;9.426;2023-02-03T04:12:02;12.98;;;2.88;;
22103;SDS011;11218;48.886;9.426;2023-02-03T04:14:32;11.55;;;3.40;;
22103;SDS011;11218;48.886;9.426;2023-02-03T04:17:04;22.65;;;5.78;;
22103;SDS011;11218;48.886;9.426;2023-02-03T04:19:34;19.00;;;4.70;;
22103;SDS011;11218;48.886;9.426;2023-02-03T04:22:02;17.17;;;4.45;;
22103;SDS011;11218;48.886;9.426;2023-02-03T04:24:30;17.25;;;4.13;;
22103;SDS011;11218;48.886;9.426;2023-02-03T04:26:57;17.67;;;4.40;;
22103;SDS011;11218;48.886;9.426;2023-02-03T04:29:25;17.98;;;5.25;;
22103;SDS011;11218;48.886;9.426;2023-02-03T04:31:54;11.68;;;3.70;;
22103;SDS011;11218;48.886;9.426;2023-02-03T04:34:22;14.35;;;3.60;;
22103;SDS011;11218;48.886;9.426;2023-02-03T04:36:51;9.18;;;2.55;;
22103;SDS011;11218;48.886;9.426;2023-02-03T04:39:20;12.35;;;3.15;;
22103;SDS011;11218;48.886;9.426;2023-02-03T04:41:48;14.95;;;3.42;;
22103;SDS011;11218;48.886;9.426;2023-02-03T04:44:16;18.45;;;4.70;;
22103;SDS011;11218;48.886;9.426;2023-02-03T04:46:44;11.05;;;4.43;;
22103;SDS011;11218;48.886;9.426;2023-02-03T04:49:12;18.50;;;3.80;;
22103;SDS011;11218;48.886;9.426;2023-02-03T04:51:40;11.82;;;3.03;;
22103;SDS011;11218;48.886;9.426;2023-02-03T04:54:11;13.95;;;4.88;;
22103;SDS011;11218;48.886;9.426;2023-02-03T04:56:39;10.98;;;2.60;;
22103;SDS011;11218;48.886;9.426;2023-02-03T04:59:07;13.18;;;3.20;;
22103;SDS011;11218;48.886;9.426;2023-02-03T05:01:35;24.17;;;4.13;;
22103;SDS011;11218;48.886;9.426;2023-02-03T05:04:03;17.88;;;3.20;;
22103;SDS011;11218;48.886;9.426;2023-02-03T05:06:32;14.35;;;3.00;;
22103;SDS011;11218;48.886;9.426;2023-02-03T05:09:01;17.98;;;3.47;;
22103;SDS011;11218;48.886;9.426;2023-02-03T05:11:30;24.50;;;4.28;;
22103;SDS011;11218;48.886;9.426;2023-02-03T05:13:59;18.30;;;3.10;;
22103;SDS011;11218;48.886;9.426;2023-02-03T05:16:27;12.20;;;2.70;;
22103;SDS011;11218;48.886;9.426;2023-02-03T05:18:55;12.98;;;2.47;;
22103;SDS011;11218;48.886;9.426;2023-02-03T05:21:23;12.80;;;2.92;;
22103;SDS011;11218;48.886;9.426;2023-02-03T05:23:51;10.65;;;2.30;;
22103;SDS011;11218;48.886;9.426;2023-02-03T05:26:19;14.95;;;3.05;;
22103;SDS011;11218;48.886;9.426;2023-02-03T05:28:48;11.40;;;2.55;;
22103;SDS011;11218;48.886;9.426;2023-02-03T05:31:19;20.75;;;3.50;;
22103;SDS011;11218;48.886;9.426;2023-02-03T05:33:47;14.48;;;2.72;;
22103;SDS011;11218;48.886;9.426;2023-02-03T05:36:15;14.40;;;2.88;;
22103;SDS011;11218;48.886;9.426;2023-02-03T05:38:44;18.20;;;3.40;;
22103;SDS011;11218;48.886;9.426;2023-02-03T05:41:12;16.15;;;2.67;;
22103;SDS011;11218;48.886;9.426;2023-02-03T05:43:59;11.90;;;2.53;;
22103;SDS011;11218;48.886;9.426;2023-02-03T05:46:27;12.02;;;2.63;;
22103;SDS011;11218;48.886;9.426;2023-02-03T05:48:55;14.95;;;2.78;;
22103;SDS011;11218;48.886;9.426;2023-02-03T05:51:23;9.05;;;2.08;;
22103;SDS011;11218;48.886;9.426;2023-02-03T05:53:51;10.98;;;2.65;;
22103;SDS011;11218;48.886;9.426;2023-02-03T05:56:19;12.65;;;2.97;;
22103;SDS011;11218;48.886;9.426;2023-02-03T05:58:49;11.73;;;3.25;;
22103;SDS011;11218;48.886;9.426;2023-02-03T06:01:20;12.65;;;3.00;;
22103;SDS011;11218;48.886;9.426;2023-02-03T06:03:48;14.65;;;2.90;;
22103;SDS011;11218;48.886;9.426;2023-02-03T06:06:16;9.80;;;2.25;;
22103;SDS011;11218;48.886;9.426;2023-02-03T06:08:45;7.60;;;1.60;;
22103;SDS011;11218;48.886;9.426;2023-02-03T06:11:13;11.43;;;2.53;;
22103;SDS011;11218;48.886;9.426;2023-02-03T06:13:41;12.73;;;3.25;;
22103;SDS011;11218;48.886;9.426;2023-02-03T06:16:09;15.90;;;3.42;;
22103;SDS011;11218;48.886;9.426;2023-02-03T06:18:39;15.13;;;3.03;;
22103;SDS011;11218;48.886;9.426;2023-02-03T06:21:08;21.25;;;3.97;;
22103;SDS011;11218;48.886;9.426;2023-02-03T06:23:36;14.65;;;2.97;;
22103;SDS011;11218;48.886;9.426;2023-02-03T06:26:04;6.35;;;2.17;;
22103;SDS011;11218;48.886;9.426;2023-02-03T06:28:33;19.73;;;3.60;;
22103;SDS011;11218;48.886;9.426;2023-02-03T06:31:03;17.63;;;3.75;;
22103;SDS011;11218;48.886;9.426;2023-02-03T06:33:32;17.08;;;3.65;;
22103;SDS011;11218;48.886;9.426;2023-02-03T06:36:02;14.85;;;3.10;;
22103;SDS011;11218;48.886;9.426;2023-02-03T06:38:31;8.80;;;2.60;;
22103;SDS011;11218;48.886;9.426;2023-02-03T06:40:59;15.23;;;3.53;;
22103;SDS011;11218;48.886;9.426;2023-02-03T06:43:27;16.10;;;3.55;;
22103;SDS011;11218;48.886;9.426;2023-02-03T06:45:55;11.57;;;2.65;;
22103;SDS011;11218;48.886;9.426;2023-02-03T06:48:23;18.05;;;3.55;;
22103;SDS011;11218;48.886;9.426;2023-02-03T06:50:52;17.42;;;3.45;;
22103;SDS011;11218;48.886;9.426;2023-02-03T06:53:22;15.20;;;3.10;;
22103;SDS011;11218;48.886;9.426;2023-02-03T06:55:50;21.08;;;4.60;;
22103;SDS011;11218;48.886;9.426;2023-02-03T06:58:19;12.15;;;2.78;;
22103;SDS011;11218;48.886;9.426;2023-02-03T07:00:47;31.05;;;5.35;;
22103;SDS011;11218;48.886;9.426;2023-02-03T07:03:16;25.23;;;4.80;;
22103;SDS011;11218;48.886;9.426;2023-02-03T07:05:45;24.65;;;4.05;;
22103;SDS011;11218;48.886;9.426;2023-02-03T07:08:13;24.08;;;4.28;;
22103;SDS011;11218;48.886;9.426;2023-02-03T07:10:42;28.42;;;4.80;;
22103;SDS011;11218;48.886;9.426;2023-02-03T07:13:11;26.00;;;4.97;;
22103;SDS011;11218;48.886;9.426;2023-02-03T07:15:39;19.08;;;3.88;;
22103;SDS011;11218;48.886;9.426;2023-02-03T07:18:07;29.45;;;4.93;;
22103;SDS011;11218;48.886;9.426;2023-02-03T07:20:38;24.52;;;4.30;;
22103;SDS011;11218;48.886;9.426;2023-02-03T07:23:06;27.38;;;4.75;;
22103;SDS011;11218;48.886;9.426;2023-02-03T07:25:35;7.93;;;2.35;;
22103;SDS011;11218;48.886;9.426;2023-02-03T07:28:05;13.10;;;3.40;;
22103;SDS011;11218;48.886;9.426;2023-02-03T07:30:33;13.68;;;3.13;;
22103;SDS011;11218;48.886;9.426;2023-02-03T07:33:01;16.60;;;3.63;;
22103;SDS011;11218;48.886;9.426;2023-02-03T07:35:30;26.92;;;4.82;;
22103;SDS011;11218;48.886;9.426;2023-02-03T07:37:58;13.90;;;3.22;;
22103;SDS011;11218;48.886;9.426;2023-02-03T07:40:27;10.60;;;2.60;;
22103;SDS011;11218;48.886;9.426;2023-02-03T07:42:56;13.05;;;3.13;;
22103;SDS011;11218;48.886;9.426;2023-02-03T07:45:26;14.20;;;3.05;;
22103;SDS011;11218;48.886;9.426;2023-02-03T07:47:54;15.15;;;3.03;;
22103;SDS011;11218;48.886;9.426;2023-02-03T07:50:23;22.42;;;4.32;;
22103;SDS011;11218;48.886;9.426;2023-02-03T07:52:51;18.50;;;3.47;;
22103;SDS011;11218;48.886;9.426;2023-02-03T07:55:21;16.55;;;3.08;;
22103;SDS011;11218;48.886;9.426;2023-02-03T07:57:50;13.23;;;2.75;;
22103;SDS011;11218;48.886;9.426;2023-02-03T08:00:20;22.63;;;3.85;;
22103;SDS011;11218;48.886;9.426;2023-02-03T08:02:50;19.60;;;3.33;;
22103;SDS011;11218;48.886;9.426;2023-02-03T08:05:18;13.98;;;2.65;;
22103;SDS011;11218;48.886;9.426;2023-02-03T08:07:47;16.35;;;3.45;;
22103;SDS011;11218;48.886;9.426;2023-02-03T08:10:15;10.85;;;2.47;;
22103;SDS011;11218;48.886;9.426;2023-02-03T08:12:43;11.27;;;2.75;;
22103;SDS011;11218;48.886;9.426;2023-02-03T08:15:12;18.40;;;3.72;;
22103;SDS011;11218;48.886;9.426;2023-02-03T08:17:42;13.68;;;3.05;;
22103;SDS011;11218;48.886;9.426;2023-02-03T08:20:13;29.15;;;5.72;;
22103;SDS011;11218;48.886;9.426;2023-02-03T08:22:41;28.33;;;5.30;;
22103;SDS011;11218;48.886;9.426;2023-02-03T08:25:10;24.05;;;4.60;;
22103;SDS011;11218;48.886;9.426;2023-02-03T08:27:39;26.80;;;4.88;;
22103;SDS011;11218;48.886;9.426;2023-02-03T08:30:09;28.90;;;4.72;;
22103;SDS011;11218;48.886;9.426;2023-02-03T08:32:40;25.10;;;4.72;;
22103;SDS011;11218;48.886;9.426;2023-02-03T08:35:08;23.75;;;4.75;;
22103;SDS011;11218;48.886;9.426;2023-02-03T08:37:38;25.38;;;5.68;;
22103;SDS011;11218;48.886;9.426;2023-02-03T08:40:07;26.60;;;4.93;;
22103;SDS011;11218;48.886;9.426;2023-02-03T08:42:36;26.70;;;4.68;;
22103;SDS011;11218;48.886;9.426;2023-02-03T08:45:05;24.55;;;4.53;;
22103;SDS011;11218;48.886;9.426;2023-02-03T08:47:34;20.48;;;4.13;;
22103;SDS011;11218;48.886;9.426;2023-02-03T08:50:05;26.63;;;5.00;;
22103;SDS011;11218;48.886;9.426;2023-02-03T08:52:35;23.33;;;4.78;;
22103;SDS011;11218;48.886;9.426;2023-02-03T08:55:05;12.27;;;3.33;;
22103;SDS011;11218;48.886;9.426;2023-02-03T08:57:34;15.27;;;3.53;;
22103;SDS011;11218;48.886;9.426;2023-02-03T09:00:03;19.73;;;4.13;;
22103;SDS011;11218;48.886;9.426;2023-02-03T09:02:32;24.60;;;4.80;;
22103;SDS011;11218;48.886;9.426;2023-02-03T09:05:01;32.35;;;5.85;;
22103;SDS011;11218;48.886;9.426;2023-02-03T09:07:29;22.77;;;4.57;;
22103;SDS011;11218;48.886;9.426;2023-02-03T09:09:58;24.00;;;4.72;;
22103;SDS011;11218;48.886;9.426;2023-02-03T09:12:27;13.70;;;3.65;;
22103;SDS011;11218;48.886;9.426;2023-02-03T09:14:56;10.75;;;3.22;;
22103;SDS011;11218;48.886;9.426;2023-02-03T09:17:24;17.13;;;4.13;;
22103;SDS011;11218;48.886;9.426;2023-02-03T09:19:54;16.02;;;3.80;;
22103;SDS011;11218;48.886;9.426;2023-02-03T09:22:22;15.82;;;3.80;;
22103;SDS011;11218;48.886;9.426;2023-02-03T09:24:50;13.18;;;3.53;;
22103;SDS011;11218;48.886;9.426;2023-02-03T09:27:18;30.52;;;5.43;;
22103;SDS011;11218;48.886;9.426;2023-02-03T09:29:48;16.25;;;3.63;;
22103;SDS011;11218;48.886;9.426;2023-02-03T09:32:16;31.05;;;5.40;;
22103;SDS011;11218;48.886;9.426;2023-02-03T09:34:44;14.48;;;4.00;;
22103;SDS011;11218;48.886;9.426;2023-02-03T09:37:12;14.77;;;3.70;;
22103;SDS011;11218;48.886;9.426;2023-02-03T09:39:40;12.98;;;3.70;;
22103;SDS011;11218;48.886;9.426;2023-02-03T09:45:10;15.57;;;3.75;;
22103;SDS011;11218;48.886;9.426;2023-02-03T09:47:45;15.52;;;3.55;;
22103;SDS011;11218;48.886;9.426;2023-02-03T09:50:19;17.80;;;4.10;;
22103;SDS011;11218;48.886;9.426;2023-02-03T09:52:49;14.85;;;3.60;;
22103;SDS011;11218;48.886;9.426;2023-02-03T09:55:24;16.77;;;3.47;;
22103;SDS011;11218;48.886;9.426;2023-02-03T09:57:59;14.98;;;3.88;;
22103;SDS011;11218;48.886;9.426;2023-02-03T10:00:34;9.07;;;3.00;;
22103;SDS011;11218;48.886;9.426;2023-02-03T10:03:06;10.95;;;3.13;;
22103;SDS011;11218;48.886;9.426;2023-02-03T10:05:43;19.88;;;4.40;;
22103;SDS011;11218;48.886;9.426;2023-02-03T10:08:21;16.20;;;3.63;;
22103;SDS011;11218;48.886;9.426;2023-02-03T10:10:57;13.63;;;3.35;;
22103;SDS011;11218;48.886;9.426;2023-02-03T10:13:48;18.95;;;3.45;;
22103;SDS011;11218;48.886;9.426;2023-02-03T10:16:40;9.02;;;2.80;;
22103;SDS011;11218;48.886;9.426;2023-02-03T10:19:16;16.63;;;3.50;;
22103;SDS011;11218;48.886;9.426;2023-02-03T10:21:49;19.50;;;3.40;;
22103;SDS011;11218;48.886;9.426;2023-02-03T10:24:23;16.13;;;3.30;;
22103;SDS011;11218;48.886;9.426;2023-02-03T10:26:54;16.02;;;3.22;;
22103;SDS011;11218;48.886;9.426;2023-02-03T10:29:25;15.35;;;3.72;;
22103;SDS011;11218;48.886;9.426;2023-02-03T10:32:00;24.30;;;4.28;;
22103;SDS011;11218;48.886;9.426;2023-02-03T10:34:29;21.40;;;3.92;;
22103;SDS011;11218;48.886;9.426;2023-02-03T10:36:57;27.42;;;4.10;;
22103;SDS011;11218;48.886;9.426;2023-02-03T10:39:30;18.02;;;3.53;;
22103;SDS011;11218;48.886;9.426;2023-02-03T10:42:10;14.05;;;3.10;;
22103;SDS011;11218;48.886;9.426;2023-02-03T10:44:41;16.17;;;3.30;;
22103;SDS011;11218;48.886;9.426;2023-02-03T10:47:23;14.85;;;3.00;;
22103;SDS011;11218;48.886;9.426;2023-02-03T10:49:56;14.38;;;3.03;;
22103;SDS011;11218;48.886;9.426;2023-02-03T10:52:27;18.10;;;3.78;;
22103;SDS011;11218;48.886;9.426;2023-02-03T10:54:58;21.02;;;4.47;;
22103;SDS011;11218;48.886;9.426;2023-02-03T10:57:34;15.65;;;4.22;;
22103;SDS011;11218;48.886;9.426;2023-02-03T11:00:06;18.88;;;4.03;;
22103;SDS011;11218;48.886;9.426;2023-02-03T11:02:54;19.98;;;4.45;;
22103;SDS011;11218;48.886;9.426;2023-02-03T11:05:26;9.85;;;2.60;;
22103;SDS011;11218;48.886;9.426;2023-02-03T11:07:54;15.30;;;3.67;;
22103;SDS011;11218;48.886;9.426;2023-02-03T11:10:29;19.45;;;3.67;;
22103;SDS011;11218;48.886;9.426;2023-02-03T11:13:11;8.82;;;1.90;;
22103;SDS011;11218;48.886;9.426;2023-02-03T11:15:51;7.47;;;1.85;;
22103;SDS011;11218;48.886;9.426;2023-02-03T11:18:30;14.77;;;2.72;;
22103;SDS011;11218;48.886;9.426;2023-02-03T11:21:07;13.02;;;2.70;;
22103;SDS011;11218;48.886;9.426;2023-02-03T11:23:42;9.23;;;2.25;;
22103;SDS011;11218;48.886;9.426;2023-02-03T11:26:13;22.15;;;3.80;;
22103;SDS011;11218;48.886;9.426;2023-02-03T11:28:43;22.20;;;3.90;;
22103;SDS011;11218;48.886;9.426;2023-02-03T11:31:15;21.25;;;3.55;;
22103;SDS011;11218;48.886;9.426;2023-02-03T11:33:49;15.75;;;2.83;;
22103;SDS011;11218;48.886;9.426;2023-02-03T11:36:21;11.90;;;2.58;;
22103;SDS011;11218;48.886;9.426;2023-02-03T11:39:01;12.45;;;2.47;;
22103;SDS011;11218;48.886;9.426;2023-02-03T11:41:44;14.52;;;2.70;;
22103;SDS011;11218;48.886;9.426;2023-02-03T11:44:21;25.42;;;3.97;;
22103;SDS011;11218;48.886;9.426;2023-02-03T11:46:52;16.60;;;3.05;;
22103;SDS011;11218;48.886;9.426;2023-02-03T12:03:00;13.43;;;2.55;;
22103;SDS011;11218;48.886;9.426;2023-02-03T12:05:50;12.43;;;2.75;;
22103;SDS011;11218;48.886;9.426;2023-02-03T12:08:32;12.52;;;2.33;;
22103;SDS011;11218;48.886;9.426;2023-02-03T12:11:14;13.95;;;2.83;;
22103;SDS011;11218;48.886;9.426;2023-02-03T12:16:53;22.67;;;3.65;;
22103;SDS011;11218;48.886;9.426;2023-02-03T12:19:39;17.95;;;3.05;;
22103;SDS011;11218;48.886;9.426;2023-02-03T12:22:18;12.23;;;2.38;;
22103;SDS011;11218;48.886;9.426;2023-02-03T12:24:56;18.23;;;3.42;;
22103;SDS011;11218;48.886;9.426;2023-02-03T12:27:37;13.57;;;2.85;;
22103;SDS011;11218;48.886;9.426;2023-02-03T12:30:16;16.15;;;2.63;;
22103;SDS011;11218;48.886;9.426;2023-02-03T12:32:50;22.45;;;3.53;;
22103;SDS011;11218;48.886;9.426;2023-02-03T12:35:24;16.05;;;2.90;;
22103;SDS011;11218;48.886;9.426;2023-02-03T12:38:00;14.13;;;2.60;;
22103;SDS011;11218;48.886;9.426;2023-02-03T12:40:34;23.95;;;3.92;;
22103;SDS011;11218;48.886;9.426;2023-02-03T12:43:12;11.70;;;2.20;;
22103;SDS011;11218;48.886;9.426;2023-02-03T12:45:50;17.42;;;3.08;;
22103;SDS011;11218;48.886;9.426;2023-02-03T12:48:21;12.43;;;2.50;;
22103;SDS011;11218;48.886;9.426;2023-02-03T12:50:57;24.20;;;4.28;;
22103;SDS011;11218;48.886;9.426;2023-02-03T12:53:29;22.92;;;3.67;;
22103;SDS011;11218;48.886;9.426;2023-02-03T12:56:02;11.13;;;2.50;;
22103;SDS011;11218;48.886;9.426;2023-02-03T12:58:36;11.95;;;2.55;;
22103;SDS011;11218;48.886;9.426;2023-02-03T13:01:09;16.63;;;3.10;;
22103;SDS011;11218;48.886;9.426;2023-02-03T13:03:42;16.90;;;3.00;;
22103;SDS011;11218;48.886;9.426;2023-02-03T13:06:21;19.27;;;3.47;;
22103;SDS011;11218;48.886;9.426;2023-02-03T13:08:55;11.27;;;2.42;;
22103;SDS011;11218;48.886;9.426;2023-02-03T13:11:28;15.70;;;2.85;;
22103;SDS011;11218;48.886;9.426;2023-02-03T13:14:02;17.40;;;3.28;;
22103;SDS011;11218;48.886;9.426;2023-02-03T13:16:41;15.90;;;2.97;;
22103;SDS011;11218;48.886;9.426;2023-02-03T13:19:14;27.35;;;4.38;;
22103;SDS011;11218;48.886;9.426;2023-02-03T13:21:48;16.80;;;3.10;;
22103;SDS011;11218;48.886;9.426;2023-02-03T13:24:18;16.40;;;3.08;;
22103;SDS011;11218;48.886;9.426;2023-02-03T13:26:59;11.75;;;2.70;;
22103;SDS011;11218;48.886;9.426;2023-02-03T13:29:48;15.65;;;3.50;;
22103;SDS011;11218;48.886;9.426;2023-02-03T13:32:32;13.00;;;3.47;;
22103;SDS011;11218;48.886;9.426;2023-02-03T13:35:22;12.70;;;2.65;;
22103;SDS011;11218;48.886;9.426;2023-02-03T13:38:09;13.77;;;3.63;;
22103;SDS011;11218;48.886;9.426;2023-02-03T13:40:52;16.90;;;4.03;;
22103;SDS011;11218;48.886;9.426;2023-02-03T13:43:27;14.20;;;3.17;;
22103;SDS011;11218;48.886;9.426;2023-02-03T13:46:05;15.88;;;3.15;;
22103;SDS011;11218;48.886;9.426;2023-02-03T13:48:45;15.00;;;3.03;;
22103;SDS011;11218;48.886;9.426;2023-02-03T13:51:19;20.42;;;3.90;;
22103;SDS011;11218;48.886;9.426;2023-02-03T13:53:51;23.08;;;3.92;;
22103;SDS011;11218;48.886;9.426;2023-02-03T13:56:25;21.52;;;4.20;;
22103;SDS011;11218;48.886;9.426;2023-02-03T13:58:58;23.85;;;4.43;;
22103;SDS011;11218;48.886;9.426;2023-02-03T14:01:32;32.08;;;5.05;;
22103;SDS011;11218;48.886;9.426;2023-02-03T14:04:04;22.55;;;3.90;;
22103;SDS011;11218;48.886;9.426;2023-02-03T14:09:54;24.67;;;4.30;;
22103;SDS011;11218;48.886;9.426;2023-02-03T14:12:56;27.58;;;4.90;;
22103;SDS011;11218;48.886;9.426;2023-02-03T14:15:29;24.45;;;4.20;;
22103;SDS011;11218;48.886;9.426;2023-02-03T14:18:03;23.15;;;4.32;;
22103;SDS011;11218;48.886;9.426;2023-02-03T14:20:53;22.05;;;4.05;;
22103;SDS011;11218;48.886;9.426;2023-02-03T14:23:38;25.05;;;4.55;;
22103;SDS011;11218;48.886;9.426;2023-02-03T14:26:17;21.95;;;3.88;;
22103;SDS011;11218;48.886;9.426;2023-02-03T14:28:48;25.95;;;4.28;;
22103;SDS011;11218;48.886;9.426;2023-02-03T14:31:19;48.25;;;7.55;;
22103;SDS011;11218;48.886;9.426;2023-02-03T14:34:07;9.02;;;2.20;;
22103;SDS011;11218;48.886;9.426;2023-02-03T14:36:48;30.23;;;4.78;;
22103;SDS011;11218;48.886;9.426;2023-02-03T14:42:35;25.55;;;4.28;;
22103;SDS011;11218;48.886;9.426;2023-02-03T14:45:39;26.65;;;4.57;;
22103;SDS011;11218;48.886;9.426;2023-02-03T14:51:34;19.42;;;3.63;;
22103;SDS011;11218;48.886;9.426;2023-02-03T14:54:20;26.23;;;4.32;;
22103;SDS011;11218;48.886;9.426;2023-02-03T14:57:04;20.95;;;3.72;;
22103;SDS011;11218;48.886;9.426;2023-02-03T14:59:46;18.58;;;3.97;;
22103;SDS011;11218;48.886;9.426;2023-02-03T15:02:17;28.75;;;5.82;;
22103;SDS011;11218;48.886;9.426;2023-02-03T15:04:48;25.70;;;4.65;;
22103;SDS011;11218;48.886;9.426;2023-02-03T15:07:34;25.48;;;4.60;;
22103;SDS011;11218;48.886;9.426;2023-02-03T15:10:10;35.08;;;5.72;;
22103;SDS011;11218;48.886;9.426;2023-02-03T15:12:43;26.77;;;4.78;;
22103;SDS011;11218;48.886;9.426;2023-02-03T15:15:17;28.45;;;4.63;;
22103;SDS011;11218;48.886;9.426;2023-02-03T15:17:47;34.38;;;5.35;;
22103;SDS011;11218;48.886;9.426;2023-02-03T15:20:23;20.00;;;3.63;;
22103;SDS011;11218;48.886;9.426;2023-02-03T15:22:54;12.02;;;2.40;;
22103;SDS011;11218;48.886;9.426;2023-02-03T15:25:22;14.68;;;3.25;;
22103;SDS011;11218;48.886;9.426;2023-02-03T15:27:52;31.90;;;4.93;;
22103;SDS011;11218;48.886;9.426;2023-02-03T15:30:24;32.60;;;5.15;;
22103;SDS011;11218;48.886;9.426;2023-02-03T15:32:56;27.20;;;4.60;;
22103;SDS011;11218;48.886;9.426;2023-02-03T15:35:32;27.10;;;4.53;;
22103;SDS011;11218;48.886;9.426;2023-02-03T15:38:03;27.83;;;4.97;;
22103;SDS011;11218;48.886;9.426;2023-02-03T15:40:35;45.47;;;9.85;;
22103;SDS011;11218;48.886;9.426;2023-02-03T15:43:11;75.55;;;43.33;;